sensor_id;sensor_type;location;lat;lon;timestamp;P1;durP1;ratioP1;P2;durP2;ratioP2
9536;SDS011;4807;48.024;11.726;2024-02-04T00:01:55;2.83;;;2.23;;
9536;SDS011;4807;48.024;11.726;2024-02-04T00:05:03;2.40;;;2.00;;
9536;SDS011;4807;48.024;11.726;2024-02-04T00:08:12;2.33;;;2.13;;
9536;SDS011;4807;48.024;11.726;2024-02-04T00:11:25;2.40;;;2.20;;
9536;SDS011;4807;48.024;11.726;2024-02-04T00:14:33;3.20;;;2.70;;
9536;SDS011;4807;48.024;11.726;2024-02-04T00:17:42;2.10;;;1.90;;
9536;SDS011;4807;48.024;11.726;2024-02-04T00:20:50;2.93;;;1.83;;
9536;SDS011;4807;48.024;11.726;2024-02-04T00:23:58;2.30;;;1.80;;
9536;SDS011;4807;48.024;11.726;2024-02-04T00:27:08;2.40;;;2.20;;
9536;SDS011;4807;48.024;11.726;2024-02-04T00:30:17;2.70;;;2.10;;
9536;SDS011;4807;48.024;11.726;2024-02-04T00:33:25;2.40;;;2.20;;
9536;SDS011;4807;48.024;11.726;2024-02-04T00:36:33;2.70;;;2.10;;
9536;SDS011;4807;48.024;11.726;2024-02-04T00:39:42;2.90;;;2.13;;
9536;SDS011;4807;48.024;11.726;2024-02-04T00:42:51;3.37;;;3.07;;
9536;SDS011;4807;48.024;11.726;2024-02-04T00:46:00;4.10;;;2.83;;
9536;SDS011;4807;48.024;11.726;2024-02-04T00:49:09;3.03;;;2.63;;
9536;SDS011;4807;48.024;11.726;2024-02-04T00:52:18;3.07;;;2.77;;
9536;SDS011;4807;48.024;11.726;2024-02-04T00:55:26;3.17;;;2.40;;
9536;SDS011;4807;48.024;11.726;2024-02-04T00:58:35;4.10;;;3.00;;
9536;SDS011;4807;48.024;11.726;2024-02-04T01:01:44;4.20;;;3.13;;
9536;SDS011;4807;48.024;11.726;2024-02-04T01:04:52;4.83;;;3.20;;
9536;SDS011;4807;48.024;11.726;2024-02-04T01:08:01;3.13;;;2.80;;
9536;SDS011;4807;48.024;11.726;2024-02-04T01:11:10;3.50;;;2.83;;
9536;SDS011;4807;48.024;11.726;2024-02-04T01:14:19;3.23;;;2.93;;
9536;SDS011;4807;48.024;11.726;2024-02-04T01:17:28;3.77;;;2.90;;
9536;SDS011;4807;48.024;11.726;2024-02-04T01:20:36;3.40;;;3.03;;
9536;SDS011;4807;48.024;11.726;2024-02-04T01:23:45;3.60;;;3.30;;
9536;SDS011;4807;48.024;11.726;2024-02-04T01:26:53;3.90;;;3.37;;
9536;SDS011;4807;48.024;11.726;2024-02-04T01:30:03;5.17;;;3.60;;
9536;SDS011;4807;48.024;11.726;2024-02-04T01:33:14;4.80;;;4.30;;
9536;SDS011;4807;48.024;11.726;2024-02-04T01:36:22;3.67;;;3.30;;
9536;SDS011;4807;48.024;11.726;2024-02-04T01:39:31;3.57;;;3.27;;
9536;SDS011;4807;48.024;11.726;2024-02-04T01:42:39;4.00;;;3.60;;
9536;SDS011;4807;48.024;11.726;2024-02-04T01:45:49;4.37;;;3.67;;
9536;SDS011;4807;48.024;11.726;2024-02-04T01:48:59;4.67;;;3.80;;
9536;SDS011;4807;48.024;11.726;2024-02-04T01:52:08;5.90;;;3.47;;
9536;SDS011;4807;48.024;11.726;2024-02-04T01:55:19;3.50;;;3.20;;
9536;SDS011;4807;48.024;11.726;2024-02-04T01:58:27;4.07;;;3.70;;
9536;SDS011;4807;48.024;11.726;2024-02-04T02:01:37;4.77;;;3.57;;
9536;SDS011;4807;48.024;11.726;2024-02-04T02:04:46;5.80;;;3.87;;
9536;SDS011;4807;48.024;11.726;2024-02-04T02:07:55;4.57;;;3.90;;
9536;SDS011;4807;48.024;11.726;2024-02-04T02:11:05;5.10;;;3.30;;
9536;SDS011;4807;48.024;11.726;2024-02-04T02:14:26;3.60;;;3.30;;
9536;SDS011;4807;48.024;11.726;2024-02-04T02:17:44;4.10;;;3.70;;
9536;SDS011;4807;48.024;11.726;2024-02-04T02:21:06;5.07;;;3.70;;
9536;SDS011;4807;48.024;11.726;2024-02-04T02:24:36;3.03;;;2.77;;
9536;SDS011;4807;48.024;11.726;2024-02-04T02:27:47;4.13;;;2.97;;
9536;SDS011;4807;48.024;11.726;2024-02-04T02:30:56;3.93;;;2.90;;
9536;SDS011;4807;48.024;11.726;2024-02-04T02:34:05;3.53;;;3.23;;
9536;SDS011;4807;48.024;11.726;2024-02-04T02:37:20;3.23;;;2.93;;
9536;SDS011;4807;48.024;11.726;2024-02-04T02:40:39;6.90;;;3.07;;
9536;SDS011;4807;48.024;11.726;2024-02-04T02:43:55;4.33;;;2.30;;
9536;SDS011;4807;48.024;11.726;2024-02-04T02:47:04;3.43;;;3.13;;
9536;SDS011;4807;48.024;11.726;2024-02-04T02:50:15;4.50;;;3.40;;
9536;SDS011;4807;48.024;11.726;2024-02-04T02:53:24;3.77;;;2.90;;
9536;SDS011;4807;48.024;11.726;2024-02-04T02:56:35;3.57;;;2.70;;
9536;SDS011;4807;48.024;11.726;2024-02-04T02:59:43;4.07;;;3.23;;
9536;SDS011;4807;48.024;11.726;2024-02-04T03:02:51;3.17;;;2.80;;
9536;SDS011;4807;48.024;11.726;2024-02-04T03:05:59;3.33;;;3.03;;
9536;SDS011;4807;48.024;11.726;2024-02-04T03:09:08;3.67;;;3.20;;
9536;SDS011;4807;48.024;11.726;2024-02-04T03:12:18;3.43;;;2.87;;
9536;SDS011;4807;48.024;11.726;2024-02-04T03:15:27;3.90;;;2.50;;
9536;SDS011;4807;48.024;11.726;2024-02-04T03:18:36;3.23;;;2.50;;
9536;SDS011;4807;48.024;11.726;2024-02-04T03:21:47;3.87;;;2.20;;
9536;SDS011;4807;48.024;11.726;2024-02-04T03:24:56;2.70;;;2.17;;
9536;SDS011;4807;48.024;11.726;2024-02-04T03:28:05;2.30;;;1.80;;
9536;SDS011;4807;48.024;11.726;2024-02-04T03:31:19;2.37;;;2.10;;
9536;SDS011;4807;48.024;11.726;2024-02-04T03:34:27;2.80;;;1.93;;
9536;SDS011;4807;48.024;11.726;2024-02-04T03:37:37;3.33;;;1.93;;
9536;SDS011;4807;48.024;11.726;2024-02-04T03:40:46;3.13;;;2.23;;
9536;SDS011;4807;48.024;11.726;2024-02-04T03:43:57;2.77;;;1.80;;
9536;SDS011;4807;48.024;11.726;2024-02-04T03:47:06;2.17;;;1.97;;
9536;SDS011;4807;48.024;11.726;2024-02-04T03:50:14;2.60;;;2.40;;
9536;SDS011;4807;48.024;11.726;2024-02-04T03:53:22;3.27;;;2.20;;
9536;SDS011;4807;48.024;11.726;2024-02-04T03:56:31;2.37;;;2.13;;
9536;SDS011;4807;48.024;11.726;2024-02-04T03:59:43;2.53;;;1.97;;
9536;SDS011;4807;48.024;11.726;2024-02-04T04:02:52;2.90;;;2.43;;
9536;SDS011;4807;48.024;11.726;2024-02-04T04:06:00;3.47;;;2.40;;
9536;SDS011;4807;48.024;11.726;2024-02-04T04:09:09;2.67;;;2.17;;
9536;SDS011;4807;48.024;11.726;2024-02-04T04:12:19;4.57;;;2.30;;
9536;SDS011;4807;48.024;11.726;2024-02-04T04:15:28;3.00;;;2.20;;
9536;SDS011;4807;48.024;11.726;2024-02-04T04:18:37;2.30;;;2.10;;
9536;SDS011;4807;48.024;11.726;2024-02-04T04:21:48;4.00;;;2.20;;
9536;SDS011;4807;48.024;11.726;2024-02-04T04:24:56;1.90;;;1.80;;
9536;SDS011;4807;48.024;11.726;2024-02-04T04:28:05;2.13;;;1.67;;
9536;SDS011;4807;48.024;11.726;2024-02-04T04:31:14;2.80;;;1.90;;
9536;SDS011;4807;48.024;11.726;2024-02-04T04:34:23;1.60;;;1.50;;
9536;SDS011;4807;48.024;11.726;2024-02-04T04:37:31;2.07;;;1.57;;
9536;SDS011;4807;48.024;11.726;2024-02-04T04:40:39;3.37;;;1.90;;
9536;SDS011;4807;48.024;11.726;2024-02-04T04:43:47;4.33;;;1.80;;
9536;SDS011;4807;48.024;11.726;2024-02-04T04:46:57;2.40;;;1.77;;
9536;SDS011;4807;48.024;11.726;2024-02-04T04:50:06;2.07;;;1.13;;
9536;SDS011;4807;48.024;11.726;2024-02-04T04:53:16;2.23;;;0.90;;
9536;SDS011;4807;48.024;11.726;2024-02-04T04:56:24;1.37;;;0.80;;
9536;SDS011;4807;48.024;11.726;2024-02-04T04:59:33;1.10;;;1.00;;
9536;SDS011;4807;48.024;11.726;2024-02-04T05:02:43;1.17;;;1.00;;
9536;SDS011;4807;48.024;11.726;2024-02-04T05:05:52;1.77;;;0.80;;
9536;SDS011;4807;48.024;11.726;2024-02-04T05:09:00;1.80;;;0.90;;
9536;SDS011;4807;48.024;11.726;2024-02-04T05:12:08;0.93;;;0.90;;
9536;SDS011;4807;48.024;11.726;2024-02-04T05:15:17;1.47;;;1.03;;
9536;SDS011;4807;48.024;11.726;2024-02-04T05:18:27;1.13;;;0.93;;
9536;SDS011;4807;48.024;11.726;2024-02-04T05:21:37;2.70;;;1.40;;
9536;SDS011;4807;48.024;11.726;2024-02-04T05:24:46;3.90;;;1.10;;
9536;SDS011;4807;48.024;11.726;2024-02-04T05:27:55;2.03;;;1.43;;
9536;SDS011;4807;48.024;11.726;2024-02-04T05:31:03;4.47;;;1.37;;
9536;SDS011;4807;48.024;11.726;2024-02-04T05:34:14;2.50;;;1.40;;
9536;SDS011;4807;48.024;11.726;2024-02-04T05:37:23;1.20;;;1.10;;
9536;SDS011;4807;48.024;11.726;2024-02-04T05:40:31;4.80;;;1.67;;
9536;SDS011;4807;48.024;11.726;2024-02-04T05:43:40;2.20;;;1.40;;
9536;SDS011;4807;48.024;11.726;2024-02-04T05:46:49;1.30;;;1.17;;
9536;SDS011;4807;48.024;11.726;2024-02-04T05:49:59;2.07;;;1.03;;
9536;SDS011;4807;48.024;11.726;2024-02-04T05:53:08;2.50;;;1.40;;
9536;SDS011;4807;48.024;11.726;2024-02-04T05:56:16;5.50;;;2.00;;
9536;SDS011;4807;48.024;11.726;2024-02-04T05:59:25;1.97;;;1.27;;
9536;SDS011;4807;48.024;11.726;2024-02-04T06:02:33;3.03;;;1.80;;
9536;SDS011;4807;48.024;11.726;2024-02-04T06:05:43;2.00;;;1.50;;
9536;SDS011;4807;48.024;11.726;2024-02-04T06:08:51;1.87;;;1.47;;
9536;SDS011;4807;48.024;11.726;2024-02-04T06:12:00;2.70;;;1.87;;
9536;SDS011;4807;48.024;11.726;2024-02-04T06:15:11;2.57;;;1.90;;
9536;SDS011;4807;48.024;11.726;2024-02-04T06:18:21;3.20;;;1.73;;
9536;SDS011;4807;48.024;11.726;2024-02-04T06:21:30;2.90;;;1.87;;
9536;SDS011;4807;48.024;11.726;2024-02-04T06:24:39;3.03;;;1.63;;
9536;SDS011;4807;48.024;11.726;2024-02-04T06:27:47;5.90;;;1.97;;
9536;SDS011;4807;48.024;11.726;2024-02-04T06:30:56;4.67;;;2.00;;
9536;SDS011;4807;48.024;11.726;2024-02-04T06:34:04;4.43;;;1.87;;
9536;SDS011;4807;48.024;11.726;2024-02-04T06:37:14;4.47;;;2.30;;
9536;SDS011;4807;48.024;11.726;2024-02-04T06:40:22;2.20;;;1.87;;
9536;SDS011;4807;48.024;11.726;2024-02-04T06:43:31;2.57;;;2.17;;
9536;SDS011;4807;48.024;11.726;2024-02-04T06:46:42;4.07;;;2.83;;
9536;SDS011;4807;48.024;11.726;2024-02-04T06:49:50;5.18;;;3.53;;
9536;SDS011;4807;48.024;11.726;2024-02-04T06:53:00;3.30;;;2.33;;
9536;SDS011;4807;48.024;11.726;2024-02-04T06:56:08;4.20;;;3.13;;
9536;SDS011;4807;48.024;11.726;2024-02-04T06:59:16;3.70;;;2.80;;
9536;SDS011;4807;48.024;11.726;2024-02-04T07:02:25;3.20;;;2.77;;
9536;SDS011;4807;48.024;11.726;2024-02-04T07:05:34;4.67;;;2.57;;
9536;SDS011;4807;48.024;11.726;2024-02-04T07:08:44;5.20;;;3.13;;
9536;SDS011;4807;48.024;11.726;2024-02-04T07:11:52;4.93;;;2.57;;
9536;SDS011;4807;48.024;11.726;2024-02-04T07:15:00;2.67;;;2.33;;
9536;SDS011;4807;48.024;11.726;2024-02-04T07:18:09;4.30;;;2.07;;
9536;SDS011;4807;48.024;11.726;2024-02-04T07:21:18;2.40;;;1.50;;
9536;SDS011;4807;48.024;11.726;2024-02-04T07:24:28;3.20;;;1.90;;
9536;SDS011;4807;48.024;11.726;2024-02-04T07:27:37;7.60;;;1.60;;
9536;SDS011;4807;48.024;11.726;2024-02-04T07:30:45;6.53;;;2.07;;
9536;SDS011;4807;48.024;11.726;2024-02-04T07:33:53;2.23;;;1.43;;
9536;SDS011;4807;48.024;11.726;2024-02-04T07:37:02;2.03;;;1.33;;
9536;SDS011;4807;48.024;11.726;2024-02-04T07:40:13;5.73;;;2.30;;
9536;SDS011;4807;48.024;11.726;2024-02-04T07:43:21;3.13;;;1.97;;
9536;SDS011;4807;48.024;11.726;2024-02-04T07:46:29;5.90;;;2.33;;
9536;SDS011;4807;48.024;11.726;2024-02-04T07:49:38;3.13;;;1.90;;
9536;SDS011;4807;48.024;11.726;2024-02-04T07:52:46;6.77;;;2.40;;
9536;SDS011;4807;48.024;11.726;2024-02-04T07:55:57;4.17;;;2.83;;
9536;SDS011;4807;48.024;11.726;2024-02-04T07:59:05;12.00;;;3.20;;
9536;SDS011;4807;48.024;11.726;2024-02-04T08:02:14;6.27;;;2.53;;
9536;SDS011;4807;48.024;11.726;2024-02-04T08:05:23;5.97;;;2.50;;
9536;SDS011;4807;48.024;11.726;2024-02-04T08:08:31;4.80;;;2.20;;
9536;SDS011;4807;48.024;11.726;2024-02-04T08:11:41;5.83;;;2.57;;
9536;SDS011;4807;48.024;11.726;2024-02-04T08:14:49;4.43;;;2.60;;
9536;SDS011;4807;48.024;11.726;2024-02-04T08:17:57;6.37;;;2.40;;
9536;SDS011;4807;48.024;11.726;2024-02-04T08:21:05;7.27;;;2.73;;
9536;SDS011;4807;48.024;11.726;2024-02-04T08:24:14;7.33;;;2.57;;
9536;SDS011;4807;48.024;11.726;2024-02-04T08:27:24;7.97;;;2.57;;
9536;SDS011;4807;48.024;11.726;2024-02-04T08:30:32;7.53;;;2.60;;
9536;SDS011;4807;48.024;11.726;2024-02-04T08:33:41;7.97;;;2.83;;
9536;SDS011;4807;48.024;11.726;2024-02-04T08:36:50;5.07;;;2.10;;
9536;SDS011;4807;48.024;11.726;2024-02-04T08:39:58;6.13;;;2.50;;
9536;SDS011;4807;48.024;11.726;2024-02-04T08:43:08;3.67;;;2.37;;
9536;SDS011;4807;48.024;11.726;2024-02-04T08:46:17;3.53;;;2.37;;
9536;SDS011;4807;48.024;11.726;2024-02-04T08:49:26;4.43;;;2.40;;
9536;SDS011;4807;48.024;11.726;2024-02-04T08:52:34;3.90;;;2.00;;
9536;SDS011;4807;48.024;11.726;2024-02-04T08:55:43;2.60;;;2.20;;
9536;SDS011;4807;48.024;11.726;2024-02-04T08:58:52;2.80;;;1.60;;
9536;SDS011;4807;48.024;11.726;2024-02-04T09:02:00;6.17;;;2.23;;
9536;SDS011;4807;48.024;11.726;2024-02-04T09:05:13;2.13;;;1.37;;
9536;SDS011;4807;48.024;11.726;2024-02-04T09:08:22;6.97;;;2.07;;
9536;SDS011;4807;48.024;11.726;2024-02-04T09:11:30;4.73;;;2.00;;
9536;SDS011;4807;48.024;11.726;2024-02-04T09:14:40;2.23;;;1.53;;
9536;SDS011;4807;48.024;11.726;2024-02-04T09:17:49;3.43;;;1.30;;
9536;SDS011;4807;48.024;11.726;2024-02-04T09:20:57;5.00;;;2.13;;
9536;SDS011;4807;48.024;11.726;2024-02-04T09:24:06;4.50;;;2.20;;
9536;SDS011;4807;48.024;11.726;2024-02-04T09:27:15;8.43;;;2.17;;
9536;SDS011;4807;48.024;11.726;2024-02-04T09:30:24;9.73;;;1.97;;
9536;SDS011;4807;48.024;11.726;2024-02-04T09:33:33;5.77;;;2.47;;
9536;SDS011;4807;48.024;11.726;2024-02-04T09:36:42;6.43;;;1.80;;
9536;SDS011;4807;48.024;11.726;2024-02-04T09:39:52;9.07;;;2.30;;
9536;SDS011;4807;48.024;11.726;2024-02-04T09:43:00;4.00;;;2.00;;
9536;SDS011;4807;48.024;11.726;2024-02-04T09:46:11;5.20;;;1.93;;
9536;SDS011;4807;48.024;11.726;2024-02-04T09:49:20;5.93;;;2.67;;
9536;SDS011;4807;48.024;11.726;2024-02-04T09:52:30;4.63;;;1.83;;
9536;SDS011;4807;48.024;11.726;2024-02-04T09:55:42;6.00;;;2.00;;
9536;SDS011;4807;48.024;11.726;2024-02-04T09:58:52;5.43;;;1.87;;
9536;SDS011;4807;48.024;11.726;2024-02-04T10:02:02;4.10;;;1.50;;
9536;SDS011;4807;48.024;11.726;2024-02-04T10:05:12;8.70;;;2.37;;
9536;SDS011;4807;48.024;11.726;2024-02-04T10:08:22;5.63;;;1.87;;
9536;SDS011;4807;48.024;11.726;2024-02-04T10:11:31;4.37;;;1.90;;
9536;SDS011;4807;48.024;11.726;2024-02-04T10:14:40;3.87;;;1.77;;
9536;SDS011;4807;48.024;11.726;2024-02-04T10:17:50;5.27;;;1.73;;
9536;SDS011;4807;48.024;11.726;2024-02-04T10:21:00;7.83;;;2.40;;
9536;SDS011;4807;48.024;11.726;2024-02-04T10:24:09;5.10;;;2.53;;
9536;SDS011;4807;48.024;11.726;2024-02-04T10:27:17;2.73;;;1.90;;
9536;SDS011;4807;48.024;11.726;2024-02-04T10:30:37;3.50;;;1.63;;
9536;SDS011;4807;48.024;11.726;2024-02-04T10:33:47;6.03;;;1.70;;
9536;SDS011;4807;48.024;11.726;2024-02-04T10:36:58;4.27;;;1.40;;
9536;SDS011;4807;48.024;11.726;2024-02-04T10:40:07;2.73;;;1.23;;
9536;SDS011;4807;48.024;11.726;2024-02-04T10:43:16;3.13;;;1.37;;
9536;SDS011;4807;48.024;11.726;2024-02-04T10:46:25;1.87;;;1.40;;
9536;SDS011;4807;48.024;11.726;2024-02-04T10:49:39;6.60;;;1.80;;
9536;SDS011;4807;48.024;11.726;2024-02-04T10:52:57;2.77;;;1.00;;
9536;SDS011;4807;48.024;11.726;2024-02-04T10:56:21;1.90;;;1.17;;
9536;SDS011;4807;48.024;11.726;2024-02-04T10:59:37;2.73;;;1.37;;
9536;SDS011;4807;48.024;11.726;2024-02-04T11:02:45;3.90;;;1.00;;
9536;SDS011;4807;48.024;11.726;2024-02-04T11:05:58;6.97;;;1.40;;
9536;SDS011;4807;48.024;11.726;2024-02-04T11:09:08;2.77;;;1.10;;
9536;SDS011;4807;48.024;11.726;2024-02-04T11:12:18;5.30;;;1.33;;
9536;SDS011;4807;48.024;11.726;2024-02-04T11:15:32;3.00;;;1.43;;
9536;SDS011;4807;48.024;11.726;2024-02-04T11:18:54;1.70;;;1.20;;
9536;SDS011;4807;48.024;11.726;2024-02-04T11:22:46;3.97;;;1.10;;
9536;SDS011;4807;48.024;11.726;2024-02-04T11:26:21;1.80;;;0.80;;
9536;SDS011;4807;48.024;11.726;2024-02-04T11:29:31;4.27;;;0.80;;
9536;SDS011;4807;48.024;11.726;2024-02-04T11:32:42;2.37;;;0.63;;
9536;SDS011;4807;48.024;11.726;2024-02-04T11:36:02;0.97;;;0.50;;
9536;SDS011;4807;48.024;11.726;2024-02-04T11:39:14;1.53;;;0.70;;
9536;SDS011;4807;48.024;11.726;2024-02-04T11:42:31;3.17;;;0.57;;
9536;SDS011;4807;48.024;11.726;2024-02-04T11:45:40;2.70;;;0.60;;
9536;SDS011;4807;48.024;11.726;2024-02-04T11:48:51;1.47;;;0.60;;
9536;SDS011;4807;48.024;11.726;2024-02-04T11:52:01;2.00;;;0.60;;
9536;SDS011;4807;48.024;11.726;2024-02-04T11:55:14;2.00;;;0.70;;
9536;SDS011;4807;48.024;11.726;2024-02-04T11:58:23;2.13;;;0.50;;
9536;SDS011;4807;48.024;11.726;2024-02-04T12:01:32;1.60;;;0.70;;
9536;SDS011;4807;48.024;11.726;2024-02-04T12:04:41;0.50;;;0.50;;
9536;SDS011;4807;48.024;11.726;2024-02-04T12:07:51;1.27;;;0.60;;
9536;SDS011;4807;48.024;11.726;2024-02-04T12:11:02;1.07;;;0.73;;
9536;SDS011;4807;48.024;11.726;2024-02-04T12:14:11;3.67;;;0.90;;
9536;SDS011;4807;48.024;11.726;2024-02-04T12:17:22;4.37;;;0.80;;
9536;SDS011;4807;48.024;11.726;2024-02-04T12:20:31;2.47;;;0.80;;
9536;SDS011;4807;48.024;11.726;2024-02-04T12:23:39;2.03;;;1.07;;
9536;SDS011;4807;48.024;11.726;2024-02-04T12:26:49;3.63;;;0.80;;
9536;SDS011;4807;48.024;11.726;2024-02-04T12:29:58;1.97;;;0.80;;
9536;SDS011;4807;48.024;11.726;2024-02-04T12:33:07;1.17;;;0.60;;
9536;SDS011;4807;48.024;11.726;2024-02-04T12:36:16;2.30;;;0.60;;
9536;SDS011;4807;48.024;11.726;2024-02-04T12:39:24;3.17;;;0.70;;
9536;SDS011;4807;48.024;11.726;2024-02-04T12:42:34;2.47;;;0.60;;
9536;SDS011;4807;48.024;11.726;2024-02-04T12:45:43;2.87;;;1.03;;
9536;SDS011;4807;48.024;11.726;2024-02-04T12:48:51;1.23;;;0.80;;
9536;SDS011;4807;48.024;11.726;2024-02-04T12:52:04;2.17;;;1.43;;
9536;SDS011;4807;48.024;11.726;2024-02-04T12:55:20;7.10;;;1.97;;
9536;SDS011;4807;48.024;11.726;2024-02-04T12:58:32;4.63;;;1.90;;
9536;SDS011;4807;48.024;11.726;2024-02-04T13:01:51;7.60;;;2.63;;
9536;SDS011;4807;48.024;11.726;2024-02-04T13:05:04;5.27;;;2.60;;
9536;SDS011;4807;48.024;11.726;2024-02-04T13:08:13;4.93;;;1.10;;
9536;SDS011;4807;48.024;11.726;2024-02-04T13:11:21;2.67;;;1.10;;
9536;SDS011;4807;48.024;11.726;2024-02-04T13:14:30;1.90;;;0.80;;
9536;SDS011;4807;48.024;11.726;2024-02-04T13:17:39;4.60;;;0.90;;
9536;SDS011;4807;48.024;11.726;2024-02-04T13:20:47;3.40;;;1.33;;
9536;SDS011;4807;48.024;11.726;2024-02-04T13:23:58;1.00;;;0.67;;
9536;SDS011;4807;48.024;11.726;2024-02-04T13:27:08;0.97;;;0.67;;
9536;SDS011;4807;48.024;11.726;2024-02-04T13:30:18;8.07;;;2.90;;
9536;SDS011;4807;48.024;11.726;2024-02-04T13:33:27;4.37;;;1.50;;
9536;SDS011;4807;48.024;11.726;2024-02-04T13:36:35;10.97;;;4.53;;
9536;SDS011;4807;48.024;11.726;2024-02-04T13:39:44;2.77;;;0.90;;
9536;SDS011;4807;48.024;11.726;2024-02-04T13:42:54;2.00;;;0.50;;
9536;SDS011;4807;48.024;11.726;2024-02-04T13:46:04;0.77;;;0.50;;
9536;SDS011;4807;48.024;11.726;2024-02-04T13:49:13;1.50;;;0.50;;
9536;SDS011;4807;48.024;11.726;2024-02-04T13:52:22;1.80;;;0.50;;
9536;SDS011;4807;48.024;11.726;2024-02-04T13:55:30;2.63;;;0.60;;
9536;SDS011;4807;48.024;11.726;2024-02-04T13:58:38;0.70;;;0.50;;
9536;SDS011;4807;48.024;11.726;2024-02-04T14:01:48;1.67;;;0.60;;
9536;SDS011;4807;48.024;11.726;2024-02-04T14:04:57;2.67;;;0.47;;
9536;SDS011;4807;48.024;11.726;2024-02-04T14:08:06;2.93;;;0.50;;
9536;SDS011;4807;48.024;11.726;2024-02-04T14:11:15;3.70;;;0.80;;
9536;SDS011;4807;48.024;11.726;2024-02-04T14:14:24;0.50;;;0.40;;
9536;SDS011;4807;48.024;11.726;2024-02-04T14:17:33;3.90;;;0.70;;
9536;SDS011;4807;48.024;11.726;2024-02-04T14:20:42;0.57;;;0.50;;
9536;SDS011;4807;48.024;11.726;2024-02-04T14:23:51;4.37;;;0.50;;
9536;SDS011;4807;48.024;11.726;2024-02-04T14:26:59;5.00;;;0.90;;
9536;SDS011;4807;48.024;11.726;2024-02-04T14:30:08;1.93;;;0.50;;
9536;SDS011;4807;48.024;11.726;2024-02-04T14:33:19;1.50;;;0.40;;
9536;SDS011;4807;48.024;11.726;2024-02-04T14:36:27;1.00;;;0.60;;
9536;SDS011;4807;48.024;11.726;2024-02-04T14:39:36;2.33;;;0.57;;
9536;SDS011;4807;48.024;11.726;2024-02-04T14:42:45;2.83;;;0.80;;
9536;SDS011;4807;48.024;11.726;2024-02-04T14:45:53;2.47;;;0.60;;
9536;SDS011;4807;48.024;11.726;2024-02-04T14:49:03;2.00;;;0.70;;
9536;SDS011;4807;48.024;11.726;2024-02-04T14:52:12;1.67;;;0.73;;
9536;SDS011;4807;48.024;11.726;2024-02-04T14:55:21;2.13;;;0.90;;
9536;SDS011;4807;48.024;11.726;2024-02-04T14:58:29;2.00;;;0.70;;
9536;SDS011;4807;48.024;11.726;2024-02-04T15:01:38;2.20;;;0.80;;
9536;SDS011;4807;48.024;11.726;2024-02-04T15:04:48;3.30;;;1.33;;
9536;SDS011;4807;48.024;11.726;2024-02-04T15:07:56;2.27;;;0.60;;
9536;SDS011;4807;48.024;11.726;2024-02-04T15:11:05;2.80;;;0.70;;
9536;SDS011;4807;48.024;11.726;2024-02-04T15:14:16;2.83;;;0.50;;
9536;SDS011;4807;48.024;11.726;2024-02-04T15:17:29;3.37;;;0.60;;
9536;SDS011;4807;48.024;11.726;2024-02-04T15:20:42;0.97;;;0.37;;
9536;SDS011;4807;48.024;11.726;2024-02-04T15:24:00;1.97;;;0.37;;
9536;SDS011;4807;48.024;11.726;2024-02-04T15:27:11;3.03;;;0.60;;
9536;SDS011;4807;48.024;11.726;2024-02-04T15:30:21;2.47;;;0.80;;
9536;SDS011;4807;48.024;11.726;2024-02-04T15:33:29;1.00;;;0.60;;
9536;SDS011;4807;48.024;11.726;2024-02-04T15:36:40;1.97;;;0.80;;
9536;SDS011;4807;48.024;11.726;2024-02-04T15:39:48;1.03;;;0.60;;
9536;SDS011;4807;48.024;11.726;2024-02-04T15:42:58;0.50;;;0.40;;
9536;SDS011;4807;48.024;11.726;2024-02-04T15:46:09;2.60;;;0.40;;
9536;SDS011;4807;48.024;11.726;2024-02-04T15:49:19;2.03;;;0.70;;
9536;SDS011;4807;48.024;11.726;2024-02-04T15:52:30;1.43;;;0.73;;
9536;SDS011;4807;48.024;11.726;2024-02-04T15:55:39;1.07;;;0.40;;
9536;SDS011;4807;48.024;11.726;2024-02-04T15:58:48;1.87;;;0.30;;
9536;SDS011;4807;48.024;11.726;2024-02-04T16:02:12;1.27;;;0.40;;
9536;SDS011;4807;48.024;11.726;2024-02-04T16:05:22;3.40;;;0.40;;
9536;SDS011;4807;48.024;11.726;2024-02-04T16:08:34;0.40;;;0.30;;
9536;SDS011;4807;48.024;11.726;2024-02-04T16:11:47;0.87;;;0.40;;
9536;SDS011;4807;48.024;11.726;2024-02-04T16:15:06;3.67;;;1.67;;
9536;SDS011;4807;48.024;11.726;2024-02-04T16:18:17;2.60;;;0.70;;
9536;SDS011;4807;48.024;11.726;2024-02-04T16:21:30;1.40;;;0.47;;
9536;SDS011;4807;48.024;11.726;2024-02-04T16:24:48;0.97;;;0.20;;
9536;SDS011;4807;48.024;11.726;2024-02-04T16:27:57;0.80;;;0.30;;
9536;SDS011;4807;48.024;11.726;2024-02-04T16:31:07;0.40;;;0.30;;
9536;SDS011;4807;48.024;11.726;2024-02-04T16:34:15;0.87;;;0.47;;
9536;SDS011;4807;48.024;11.726;2024-02-04T16:37:24;0.30;;;0.20;;
9536;SDS011;4807;48.024;11.726;2024-02-04T16:40:34;0.33;;;0.20;;
9536;SDS011;4807;48.024;11.726;2024-02-04T16:43:42;1.13;;;0.30;;
9536;SDS011;4807;48.024;11.726;2024-02-04T16:46:51;2.10;;;0.43;;
9536;SDS011;4807;48.024;11.726;2024-02-04T16:50:01;0.97;;;0.30;;
9536;SDS011;4807;48.024;11.726;2024-02-04T16:53:11;1.67;;;0.50;;
9536;SDS011;4807;48.024;11.726;2024-02-04T16:56:22;1.03;;;0.30;;
9536;SDS011;4807;48.024;11.726;2024-02-04T16:59:30;1.87;;;0.80;;
9536;SDS011;4807;48.024;11.726;2024-02-04T17:02:39;0.60;;;0.27;;
9536;SDS011;4807;48.024;11.726;2024-02-04T17:05:47;0.40;;;0.37;;
9536;SDS011;4807;48.024;11.726;2024-02-04T17:09:02;3.00;;;0.37;;
9536;SDS011;4807;48.024;11.726;2024-02-04T17:12:23;1.03;;;0.50;;
9536;SDS011;4807;48.024;11.726;2024-02-04T17:15:33;2.53;;;0.40;;
9536;SDS011;4807;48.024;11.726;2024-02-04T17:18:43;0.80;;;0.30;;
9536;SDS011;4807;48.024;11.726;2024-02-04T17:22:01;0.30;;;0.30;;
9536;SDS011;4807;48.024;11.726;2024-02-04T17:25:20;0.60;;;0.53;;
9536;SDS011;4807;48.024;11.726;2024-02-04T17:28:39;1.17;;;0.30;;
9536;SDS011;4807;48.024;11.726;2024-02-04T17:31:48;1.60;;;0.30;;
9536;SDS011;4807;48.024;11.726;2024-02-04T17:34:57;0.67;;;0.40;;
9536;SDS011;4807;48.024;11.726;2024-02-04T17:38:07;0.53;;;0.30;;
9536;SDS011;4807;48.024;11.726;2024-02-04T17:41:15;0.40;;;0.40;;
9536;SDS011;4807;48.024;11.726;2024-02-04T17:44:26;1.63;;;0.40;;
9536;SDS011;4807;48.024;11.726;2024-02-04T17:47:34;0.40;;;0.40;;
9536;SDS011;4807;48.024;11.726;2024-02-04T17:50:45;0.90;;;0.70;;
9536;SDS011;4807;48.024;11.726;2024-02-04T17:53:53;0.87;;;0.87;;
9536;SDS011;4807;48.024;11.726;2024-02-04T17:57:02;0.40;;;0.40;;
9536;SDS011;4807;48.024;11.726;2024-02-04T18:00:15;0.50;;;0.30;;
9536;SDS011;4807;48.024;11.726;2024-02-04T18:03:24;0.73;;;0.30;;
9536;SDS011;4807;48.024;11.726;2024-02-04T18:06:36;0.80;;;0.30;;
9536;SDS011;4807;48.024;11.726;2024-02-04T18:09:45;0.30;;;0.20;;
9536;SDS011;4807;48.024;11.726;2024-02-04T18:12:54;1.20;;;0.40;;
9536;SDS011;4807;48.024;11.726;2024-02-04T18:16:06;0.53;;;0.30;;
9536;SDS011;4807;48.024;11.726;2024-02-04T18:19:15;1.10;;;0.43;;
9536;SDS011;4807;48.024;11.726;2024-02-04T18:22:24;1.50;;;0.60;;
9536;SDS011;4807;48.024;11.726;2024-02-04T18:25:33;2.87;;;0.77;;
9536;SDS011;4807;48.024;11.726;2024-02-04T18:28:42;0.53;;;0.53;;
9536;SDS011;4807;48.024;11.726;2024-02-04T18:31:52;1.63;;;0.53;;
9536;SDS011;4807;48.024;11.726;2024-02-04T18:35:00;0.50;;;0.50;;
9536;SDS011;4807;48.024;11.726;2024-02-04T18:38:09;1.47;;;0.50;;
9536;SDS011;4807;48.024;11.726;2024-02-04T18:41:17;1.43;;;0.47;;
9536;SDS011;4807;48.024;11.726;2024-02-04T18:44:27;6.87;;;0.60;;
9536;SDS011;4807;48.024;11.726;2024-02-04T18:47:37;0.97;;;0.57;;
9536;SDS011;4807;48.024;11.726;2024-02-04T18:50:46;1.90;;;0.50;;
9536;SDS011;4807;48.024;11.726;2024-02-04T18:53:55;1.27;;;0.60;;
9536;SDS011;4807;48.024;11.726;2024-02-04T18:57:03;3.10;;;0.57;;
9536;SDS011;4807;48.024;11.726;2024-02-04T19:00:12;2.30;;;0.47;;
9536;SDS011;4807;48.024;11.726;2024-02-04T19:03:22;1.20;;;0.60;;
9536;SDS011;4807;48.024;11.726;2024-02-04T19:06:30;1.00;;;0.40;;
9536;SDS011;4807;48.024;11.726;2024-02-04T19:09:39;2.63;;;0.70;;
9536;SDS011;4807;48.024;11.726;2024-02-04T19:12:47;1.30;;;0.70;;
9536;SDS011;4807;48.024;11.726;2024-02-04T19:15:56;0.40;;;0.40;;
9536;SDS011;4807;48.024;11.726;2024-02-04T19:19:05;1.43;;;0.40;;
9536;SDS011;4807;48.024;11.726;2024-02-04T19:22:16;0.60;;;0.57;;